Taylors, SC (29687)

5:51 AM EDT on April 27, 2017 (GMT -0400)
Edward's Forest | | Change Station

Elev 1000 ft 34.93 °N, 82.33 °W | Updated 3 seconds ago

Mostly Cloudy
Mostly Cloudy
61.6 °F
Feels Like 61.6 °F
N
0.0
Wind Variable Wind from West
Gusts 0.0 mph

Today
High -- | Low -- °F
--% Chance of Precip.
Yesterday
High -- | Low -- °F
Precip. -- in
Pressure 29.78 in
Visibility 7.0 miles
Clouds Scattered Clouds 5500 ft
Dew Point 60 °F
Humidity 94%
Rainfall 0.00 in
Snow Depth Not available.
6:42 AM 8:11 PM
New Moon, 1% visible
METAR KGSP 270853Z AUTO 19005KT 7SM SCT055 16/14 A2980 RMK AO2 SLP083 T01560139 58008
Pressure 29.78 in
Visibility 7.0 miles
Clouds Scattered Clouds 5500 ft
Dew Point 60 °F
Humidity 94%
Rainfall 0.00 in
Snow Depth Not available.
6:42 AM 8:11 PM
New Moon, 1% visible
METAR KGSP 270853Z AUTO 19005KT 7SM SCT055 16/14 A2980 RMK AO2 SLP083 T01560139 58008

Get Severe Weather Alerts

Thanks for signing up!

Be on the lookout for a verification email in your inbox.

You'll start receiving the daily forecast at 8 AM.

×

10-Day Weather Forecast

Almanac

Astronomy

Apr. 27, 2017 Rise Set
Actual Time
Civil Twilight
Nautical Twilight
Astronomical Twilight
Moon
Length of Visible Light
Length of Day
Tomorrow will be .
, % of the Moon is Illuminated

Today's Extremes

State Highs State Lows

Community

WunderPhotos

WunderBlog® & News

Nearby

Air Quality

  Air Quality AQ Index Pollutant
Not available.

Snow Depth

Station Depth Elevation

Earthquake Activity

City Distance Mag. Time & Date
Minimum magnitude displayed is 2.5.

Coastal Water Temperatures

Place Temperature

Stations

Nearby Weather Stations

Station Location Temp. Windchill Dew Point Humidity Wind Precip. Elev Updated Type
                   

Watches & Warnings

There are currently no watches in effect.